createdAt,value
2018-03-23T00:02:03.436Z,5.80
2018-03-23T00:04:32.551Z,6.45
2018-03-23T00:07:00.877Z,6.00
2018-03-23T00:09:29.317Z,5.97
2018-03-23T00:11:57.862Z,6.68
2018-03-23T00:14:26.317Z,7.07
2018-03-23T00:16:54.646Z,7.20
2018-03-23T00:19:23.004Z,7.00
2018-03-23T00:21:51.314Z,8.10
2018-03-23T00:24:19.617Z,8.43
2018-03-23T00:26:47.955Z,7.95
2018-03-23T00:29:17.086Z,8.68
2018-03-23T00:31:45.462Z,7.85
2018-03-23T00:34:14.293Z,8.10
2018-03-23T00:36:42.660Z,8.15
2018-03-23T00:39:11.004Z,8.13
2018-03-23T00:41:39.349Z,8.15
2018-03-23T00:44:07.677Z,7.80
2018-03-23T00:46:36.009Z,7.40
2018-03-23T00:49:05.102Z,8.30
2018-03-23T00:51:34.205Z,7.70
2018-03-23T00:54:03.293Z,7.62
2018-03-23T00:56:32.692Z,7.85
2018-03-23T00:59:01.026Z,7.55
2018-03-23T01:01:29.370Z,8.40
2018-03-23T01:03:58.035Z,8.77
2018-03-23T01:06:27.524Z,7.53
2018-03-23T01:08:55.837Z,7.78
2018-03-23T01:11:25.096Z,7.05
2018-03-23T01:13:53.876Z,6.97
2018-03-23T01:16:22.295Z,7.28
2018-03-23T01:18:51.885Z,7.25
2018-03-23T01:21:20.276Z,7.40
2018-03-23T01:23:48.613Z,7.80
2018-03-23T01:26:16.953Z,8.40
2018-03-23T01:28:45.281Z,7.40
2018-03-23T01:31:13.624Z,7.32
2018-03-23T01:33:42.030Z,7.28
2018-03-23T01:36:10.380Z,7.62
2018-03-23T01:38:38.705Z,7.53
2018-03-23T01:41:07.253Z,7.50
2018-03-23T01:43:35.561Z,7.60
2018-03-23T01:46:03.888Z,6.35
2018-03-23T01:48:32.258Z,7.82
2018-03-23T01:51:01.355Z,8.00
2018-03-23T01:53:43.413Z,7.55
2018-03-23T01:56:11.772Z,7.60
2018-03-23T01:58:40.856Z,8.18
2018-03-23T02:01:09.433Z,6.12
2018-03-23T02:03:37.775Z,6.43
2018-03-23T02:06:06.877Z,6.00
2018-03-23T02:08:35.468Z,4.87
2018-03-23T02:11:04.568Z,4.43
2018-03-23T02:13:32.983Z,3.58
2018-03-23T02:16:01.302Z,3.37
2018-03-23T02:18:30.392Z,3.62
2018-03-23T02:20:58.722Z,3.75
2018-03-23T02:23:27.469Z,4.00
2018-03-23T02:25:55.775Z,3.30
2018-03-23T02:28:24.114Z,3.17
2018-03-23T02:30:52.472Z,3.30
2018-03-23T02:33:20.819Z,2.37
2018-03-23T02:35:49.150Z,2.33
2018-03-23T02:38:17.503Z,2.15
2018-03-23T02:40:45.815Z,1.80
2018-03-23T02:43:14.164Z,1.98
2018-03-23T02:45:42.705Z,2.42
2018-03-23T02:48:11.013Z,2.33
2018-03-23T02:50:39.347Z,1.75
2018-03-23T02:53:08.492Z,1.45
2018-03-23T02:55:36.832Z,1.60
2018-03-23T02:58:05.893Z,2.10
2018-03-23T03:00:34.256Z,1.70
2018-03-23T03:03:02.572Z,1.87
2018-03-23T03:05:30.944Z,1.80
2018-03-23T03:08:00.236Z,1.58
2018-03-23T03:10:29.033Z,1.50
2018-03-23T03:12:57.572Z,1.50
2018-03-23T03:15:25.945Z,1.30
2018-03-23T03:17:54.266Z,1.20
2018-03-23T03:20:22.597Z,1.40
2018-03-23T03:22:50.988Z,1.45
2018-03-23T03:25:19.326Z,1.70
2018-03-23T03:27:47.659Z,1.80
2018-03-23T03:30:16.537Z,1.77
2018-03-23T03:32:45.640Z,1.40
2018-03-23T03:35:13.960Z,1.73
2018-03-23T03:37:43.085Z,1.50
2018-03-23T03:40:11.402Z,1.48
2018-03-23T03:42:39.708Z,2.00
2018-03-23T03:45:08.055Z,1.75
2018-03-23T03:47:36.368Z,1.60
2018-03-23T03:50:05.519Z,1.42
2018-03-23T03:52:34.245Z,1.87
2018-03-23T03:55:02.578Z,1.40
2018-03-23T03:57:30.902Z,1.60
2018-03-23T03:59:59.270Z,1.73
2018-03-23T04:02:27.591Z,1.60
2018-03-23T04:04:55.908Z,2.05
2018-03-23T04:07:24.244Z,1.70
2018-03-23T04:09:52.551Z,1.70
2018-03-23T04:12:20.922Z,1.90
2018-03-23T04:14:49.763Z,2.00
2018-03-23T04:17:18.068Z,1.92
2018-03-23T04:19:46.385Z,2.00
2018-03-23T04:22:14.748Z,2.17
2018-03-23T04:24:43.066Z,2.40
2018-03-23T04:27:11.381Z,2.35
2018-03-23T04:29:39.752Z,2.55
2018-03-23T04:32:08.092Z,2.80
2018-03-23T04:34:36.433Z,2.90
2018-03-23T04:37:04.908Z,2.90
2018-03-23T04:39:33.263Z,1.90
2018-03-23T04:42:02.382Z,2.90
2018-03-23T04:44:30.735Z,2.20
2018-03-23T04:46:59.836Z,1.65
2018-03-23T04:49:28.143Z,2.35
2018-03-23T04:51:56.501Z,2.28
2018-03-23T04:54:25.581Z,2.80
2018-03-23T04:56:53.882Z,2.90
2018-03-23T04:59:22.636Z,2.00
2018-03-23T05:01:50.995Z,2.47
2018-03-23T05:04:19.360Z,2.83
2018-03-23T05:06:47.737Z,3.85
2018-03-23T05:09:16.814Z,3.12
2018-03-23T05:11:45.558Z,2.90
2018-03-23T05:14:13.881Z,3.10
2018-03-23T05:16:42.212Z,2.78
2018-03-23T05:19:10.537Z,3.35
2018-03-23T05:21:38.955Z,3.12
2018-03-23T05:24:07.280Z,3.22
2018-03-23T05:26:35.628Z,3.03
2018-03-23T05:29:03.988Z,3.60
2018-03-23T05:31:32.594Z,3.40
2018-03-23T05:34:00.927Z,3.20
2018-03-23T05:36:29.296Z,3.50
2018-03-23T05:38:57.617Z,3.42
2018-03-23T05:41:25.942Z,2.97
2018-03-23T05:43:54.349Z,2.95
2018-03-23T05:46:22.708Z,2.90
2018-03-23T05:48:51.032Z,2.30
2018-03-23T05:51:19.384Z,2.35
2018-03-23T05:53:47.696Z,2.45
2018-03-23T05:56:16.037Z,2.00
2018-03-23T05:58:44.659Z,2.72
2018-03-23T06:01:13.020Z,2.37
2018-03-23T06:03:41.326Z,2.60
2018-03-23T06:06:10.040Z,2.67
2018-03-23T06:08:38.373Z,2.40
2018-03-23T06:11:06.686Z,2.20
2018-03-23T06:13:36.025Z,2.45
2018-03-23T06:16:04.365Z,2.25
2018-03-23T06:18:33.456Z,2.83
2018-03-23T06:21:02.561Z,2.65
2018-03-23T06:23:30.898Z,2.50
2018-03-23T06:25:59.308Z,2.87
2018-03-23T06:28:27.836Z,2.58
2018-03-23T06:30:56.188Z,2.47
2018-03-23T06:33:24.536Z,2.58
2018-03-23T06:35:52.923Z,2.72
2018-03-23T06:38:22.071Z,2.65
2018-03-23T06:40:50.424Z,2.40
2018-03-23T06:43:18.800Z,2.45
2018-03-23T06:45:47.135Z,2.92
2018-03-23T06:48:15.470Z,2.60
2018-03-23T06:50:44.104Z,2.67
2018-03-23T06:53:12.441Z,2.53
2018-03-23T06:55:40.825Z,2.05
2018-03-23T06:58:09.198Z,2.50
2018-03-23T07:00:37.531Z,2.78
2018-03-23T07:03:05.862Z,3.00
2018-03-23T07:05:34.287Z,3.40
2018-03-23T07:08:03.387Z,3.22
2018-03-23T07:10:31.715Z,3.30
2018-03-23T07:13:00.311Z,2.92
2018-03-23T07:15:29.038Z,3.10
2018-03-23T07:17:58.105Z,3.47
2018-03-23T07:20:26.426Z,4.17
2018-03-23T07:22:55.503Z,3.75
2018-03-23T07:25:23.807Z,3.87
2018-03-23T07:27:52.162Z,4.07
2018-03-23T07:30:20.460Z,4.30
2018-03-23T07:32:48.828Z,4.43
2018-03-23T07:35:18.209Z,4.80
2018-03-23T07:37:46.561Z,4.50
2018-03-23T07:40:14.879Z,4.70
2018-03-23T07:42:43.240Z,4.80
2018-03-23T07:45:11.591Z,4.47
2018-03-23T07:47:39.956Z,4.90
2018-03-23T07:50:08.320Z,4.37
2018-03-23T07:52:37.440Z,4.73
2018-03-23T07:55:05.763Z,4.93
2018-03-23T07:57:34.270Z,4.90
2018-03-23T08:00:03.353Z,4.90
2018-03-23T08:02:31.697Z,5.07
2018-03-23T08:05:00.059Z,3.83
2018-03-23T08:07:28.393Z,4.50
2018-03-23T08:09:57.494Z,3.50
2018-03-23T08:12:26.583Z,4.27
2018-03-23T08:14:55.760Z,4.90
2018-03-23T08:17:24.117Z,4.83
2018-03-23T08:19:52.868Z,4.07
2018-03-23T08:22:21.939Z,4.20
2018-03-23T08:24:50.325Z,5.40
2018-03-23T08:27:18.709Z,4.60
2018-03-23T08:29:47.815Z,4.80
2018-03-23T08:32:16.896Z,4.77
2018-03-23T08:34:45.995Z,5.87
2018-03-23T08:37:15.083Z,6.30
2018-03-23T08:39:44.154Z,6.10
2018-03-23T08:42:12.546Z,6.20
2018-03-23T08:44:40.896Z,6.40
2018-03-23T08:47:09.209Z,6.60
2018-03-23T08:49:37.566Z,7.50
2018-03-23T08:52:05.887Z,6.83
2018-03-23T08:54:34.984Z,7.87
2018-03-23T08:57:04.129Z,7.00
2018-03-23T08:59:32.465Z,7.30
2018-03-23T09:02:02.317Z,7.70
2018-03-23T09:04:30.976Z,7.87
2018-03-23T09:06:59.342Z,6.33
2018-03-23T09:09:28.425Z,7.03
2018-03-23T09:11:57.539Z,7.70
2018-03-23T09:14:25.836Z,7.07
2018-03-23T09:16:54.184Z,7.70
2018-03-23T09:19:23.695Z,8.70
2018-03-23T09:21:52.062Z,7.63
2018-03-23T09:24:20.503Z,7.60
2018-03-23T09:26:49.146Z,7.33
2018-03-23T09:29:17.482Z,8.10
2018-03-23T09:31:45.809Z,7.67
2018-03-23T09:34:14.199Z,6.73
2018-03-23T09:36:42.559Z,7.43
2018-03-23T09:39:10.882Z,7.73
2018-03-23T09:41:39.205Z,8.17
2018-03-23T09:44:08.327Z,8.00
2018-03-23T09:46:37.453Z,7.27
2018-03-23T09:49:06.294Z,6.60
2018-03-23T09:51:34.618Z,7.33
2018-03-23T09:54:02.913Z,6.93
2018-03-23T09:56:31.369Z,7.20
2018-03-23T09:58:59.726Z,6.97
2018-03-23T10:01:28.070Z,8.07
2018-03-23T10:03:56.443Z,7.13
2018-03-23T10:06:24.765Z,7.33
2018-03-23T10:08:53.091Z,6.97
2018-03-23T10:11:21.818Z,7.07
2018-03-23T10:13:50.138Z,7.30
2018-03-23T10:16:18.461Z,6.60
2018-03-23T10:18:47.569Z,6.40
2018-03-23T10:21:15.882Z,6.33
2018-03-23T10:23:44.207Z,5.50
2018-03-23T10:26:12.660Z,6.10
2018-03-23T10:28:41.053Z,5.93
2018-03-23T10:31:09.393Z,5.93
2018-03-23T10:33:37.936Z,6.80
2018-03-23T10:36:07.082Z,5.90
2018-03-23T10:38:35.457Z,4.70
2018-03-23T10:41:03.839Z,3.77
2018-03-23T10:43:32.261Z,4.57
2018-03-23T10:46:00.597Z,4.23
2018-03-23T10:48:28.969Z,4.33
2018-03-23T10:50:57.346Z,4.93
2018-03-23T10:53:25.675Z,4.40
2018-03-23T10:55:55.322Z,4.97
2018-03-23T10:58:23.625Z,5.20
2018-03-23T11:00:57.401Z,4.30
2018-03-23T11:03:25.766Z,4.03
2018-03-23T11:05:54.888Z,3.93
2018-03-23T11:08:24.150Z,4.20
2018-03-23T11:10:53.297Z,4.57
2018-03-23T11:13:21.675Z,4.23
2018-03-23T11:15:50.151Z,4.03
2018-03-23T11:18:18.486Z,3.83
2018-03-23T11:20:46.838Z,3.67
2018-03-23T11:23:15.267Z,3.07
2018-03-23T11:25:43.701Z,3.60
2018-03-23T11:28:12.065Z,3.67
2018-03-23T11:30:40.448Z,3.30
2018-03-23T11:33:08.795Z,3.90
2018-03-23T11:35:37.195Z,4.40
2018-03-23T11:38:05.630Z,4.73
2018-03-23T11:40:33.956Z,4.10
2018-03-23T11:43:02.309Z,4.17
2018-03-23T11:45:30.656Z,4.20
2018-03-23T11:47:59.002Z,4.43
2018-03-23T11:50:27.320Z,4.50
2018-03-23T11:52:56.429Z,4.30
2018-03-23T11:55:25.508Z,4.43
2018-03-23T11:57:54.628Z,5.30
2018-03-23T12:00:23.396Z,4.57
2018-03-23T12:02:51.718Z,5.13
2018-03-23T12:05:20.083Z,5.20
2018-03-23T12:07:48.441Z,4.40
2018-03-23T12:10:16.833Z,4.60
2018-03-23T12:12:45.175Z,4.77
2018-03-23T12:15:13.559Z,4.70
2018-03-23T12:17:42.665Z,5.10
2018-03-23T12:20:11.761Z,4.23
2018-03-23T12:22:41.378Z,4.80
2018-03-23T12:25:09.741Z,5.33
2018-03-23T12:27:38.100Z,5.40
2018-03-23T12:30:06.445Z,5.60
2018-03-23T12:32:34.884Z,4.60
2018-03-23T12:35:03.237Z,5.27
2018-03-23T12:37:31.865Z,4.47
2018-03-23T12:40:00.224Z,8.50
2018-03-23T12:42:28.559Z,8.63
2018-03-23T12:44:57.316Z,5.87
2018-03-23T12:47:25.655Z,5.10
2018-03-23T12:49:53.988Z,5.07
2018-03-23T12:52:22.404Z,5.63
2018-03-23T12:54:50.748Z,4.57
2018-03-23T12:57:19.073Z,5.33
2018-03-23T12:59:48.210Z,5.43
2018-03-23T13:02:16.540Z,5.27
2018-03-23T13:04:44.888Z,4.70
2018-03-23T13:07:13.637Z,4.40
2018-03-23T13:09:41.954Z,4.60
2018-03-23T13:12:10.302Z,4.50
2018-03-23T13:14:39.433Z,4.50
2018-03-23T13:17:07.832Z,5.00
2018-03-23T13:19:36.261Z,5.00
2018-03-23T13:22:04.643Z,4.40
2018-03-23T13:24:32.978Z,4.57
2018-03-23T13:27:01.337Z,4.47
2018-03-23T13:29:30.542Z,4.93
2018-03-23T13:31:58.914Z,5.20
2018-03-23T13:34:27.287Z,5.23
2018-03-23T13:36:55.709Z,5.20
2018-03-23T13:39:24.015Z,5.00
2018-03-23T13:41:52.432Z,5.30
2018-03-23T13:44:20.802Z,4.83
2018-03-23T13:46:49.144Z,5.13
2018-03-23T13:49:17.497Z,4.13
2018-03-23T13:51:46.255Z,5.10
2018-03-23T13:54:14.574Z,5.47
2018-03-23T13:56:42.950Z,4.47
2018-03-23T13:59:16.706Z,5.00
2018-03-23T14:01:45.099Z,3.93
2018-03-23T14:04:13.492Z,4.60
2018-03-23T14:06:41.891Z,4.87
2018-03-23T14:09:10.229Z,4.70
2018-03-23T14:11:38.640Z,4.67
2018-03-23T14:14:07.196Z,4.53
2018-03-23T14:16:35.575Z,4.60
2018-03-23T14:19:03.920Z,4.50
2018-03-23T14:21:33.069Z,5.93
2018-03-23T14:24:01.420Z,4.90
2018-03-23T14:26:29.751Z,5.03
2018-03-23T14:28:58.117Z,5.30
2018-03-23T14:31:26.440Z,5.23
2018-03-23T14:33:54.786Z,5.43
2018-03-23T14:36:23.308Z,6.27
2018-03-23T14:38:51.622Z,6.10
2018-03-23T14:41:19.981Z,5.97
2018-03-23T14:43:48.341Z,7.00
2018-03-23T14:46:16.754Z,10.90
2018-03-23T14:48:45.109Z,5.83
2018-03-23T14:51:13.466Z,6.70
2018-03-23T14:53:42.584Z,6.07
2018-03-23T14:56:10.906Z,6.50
2018-03-23T14:58:44.786Z,6.10
2018-03-23T15:01:13.086Z,6.33
2018-03-23T15:03:41.400Z,6.50
2018-03-23T15:06:10.531Z,6.70
2018-03-23T15:08:38.886Z,6.30
2018-03-23T15:11:08.105Z,7.20
2018-03-23T15:13:36.468Z,7.00
2018-03-23T15:16:04.807Z,7.20
2018-03-23T15:18:33.144Z,6.83
2018-03-23T15:21:01.898Z,6.67
2018-03-23T15:23:30.314Z,7.17
2018-03-23T15:25:58.635Z,6.73
2018-03-23T15:28:27.002Z,7.57
2018-03-23T15:30:55.349Z,7.43
2018-03-23T15:33:23.781Z,6.67
2018-03-23T15:35:52.921Z,6.70
2018-03-23T15:38:21.293Z,6.67
2018-03-23T15:40:49.603Z,7.70
2018-03-23T15:43:18.099Z,7.23
2018-03-23T15:45:46.447Z,8.07
2018-03-23T15:48:14.815Z,7.20
2018-03-23T15:50:43.149Z,8.53
2018-03-23T15:53:12.279Z,7.00
2018-03-23T15:55:40.600Z,7.90
2018-03-23T15:58:08.942Z,7.50
2018-03-23T16:00:37.255Z,8.50
2018-03-23T16:03:05.553Z,8.67
2018-03-23T16:05:33.972Z,8.27
2018-03-23T16:08:02.306Z,8.10
2018-03-23T16:10:30.640Z,7.90
2018-03-23T16:12:59.056Z,8.00
2018-03-23T16:15:27.440Z,9.17
2018-03-23T16:17:55.802Z,7.60
2018-03-23T16:20:24.137Z,8.37
2018-03-23T16:22:52.468Z,8.73
2018-03-23T16:25:20.820Z,7.70
2018-03-23T16:27:49.346Z,8.33
2018-03-23T16:30:17.660Z,8.60
2018-03-23T16:32:45.988Z,7.77
2018-03-23T16:35:14.331Z,8.57
2018-03-23T16:37:42.674Z,9.20
2018-03-23T16:40:11.819Z,11.37
2018-03-23T16:42:40.193Z,10.30
2018-03-23T16:45:08.552Z,10.60
2018-03-23T16:47:36.881Z,9.33
2018-03-23T16:50:05.505Z,8.73
2018-03-23T16:52:34.666Z,8.97
2018-03-23T16:55:02.981Z,9.10
2018-03-23T16:57:32.075Z,8.30
2018-03-23T17:00:00.456Z,10.00
2018-03-23T17:02:29.556Z,10.73
2018-03-23T17:04:58.704Z,11.10
2018-03-23T17:07:27.006Z,10.27
2018-03-23T17:09:55.370Z,9.13
2018-03-23T17:12:24.068Z,7.80
2018-03-23T17:14:52.444Z,9.00
2018-03-23T17:17:20.997Z,9.00
2018-03-23T17:19:49.353Z,9.10
2018-03-23T17:22:17.762Z,8.90
2018-03-23T17:24:46.168Z,7.73
2018-03-23T17:27:14.542Z,8.00
2018-03-23T17:29:42.894Z,8.53
2018-03-23T17:32:11.275Z,8.10
2018-03-23T17:34:39.744Z,8.00
2018-03-23T17:37:08.100Z,7.90
2018-03-23T17:39:36.438Z,8.13
2018-03-23T17:42:04.805Z,7.80
2018-03-23T17:44:33.233Z,8.00
2018-03-23T17:47:01.574Z,9.10
2018-03-23T17:49:30.577Z,9.70
2018-03-23T17:51:58.927Z,9.90
2018-03-23T17:54:27.250Z,9.63
2018-03-23T17:56:56.602Z,8.80
2018-03-23T17:59:24.945Z,9.37
2018-03-23T18:01:53.268Z,9.70
2018-03-23T18:04:21.637Z,8.77
2018-03-23T18:06:49.959Z,9.37
2018-03-23T18:09:18.294Z,9.47
2018-03-23T18:11:47.442Z,8.53
2018-03-23T18:14:15.767Z,8.43
2018-03-23T18:16:44.125Z,8.40
2018-03-23T18:19:13.220Z,9.47
2018-03-23T18:21:41.547Z,10.30
2018-03-23T18:24:09.992Z,10.20
2018-03-23T18:26:38.381Z,9.40
2018-03-23T18:29:06.765Z,9.60
2018-03-23T18:31:35.117Z,9.37
2018-03-23T18:34:03.465Z,10.00
2018-03-23T18:36:31.814Z,9.60
2018-03-23T18:39:00.209Z,11.00
2018-03-23T18:41:28.936Z,10.03
2018-03-23T18:43:57.246Z,9.60
2018-03-23T18:46:25.585Z,8.70
2018-03-23T18:48:54.716Z,9.00
2018-03-23T18:51:23.476Z,9.07
2018-03-23T18:53:51.811Z,7.90
2018-03-23T18:56:20.137Z,8.40
2018-03-23T18:58:48.509Z,8.80
2018-03-23T19:01:16.885Z,9.17
2018-03-23T19:03:45.358Z,9.07
2018-03-23T19:06:14.474Z,8.40
2018-03-23T19:08:42.789Z,9.00
2018-03-23T19:11:11.122Z,7.10
2018-03-23T19:13:40.214Z,7.90
2018-03-23T19:16:09.308Z,8.40
2018-03-23T19:18:37.653Z,6.90
2018-03-23T19:21:06.361Z,6.50
2018-03-23T19:23:34.699Z,6.47
2018-03-23T19:26:03.420Z,6.53
2018-03-23T19:28:31.797Z,6.40
2018-03-23T19:31:00.114Z,6.80
2018-03-23T19:33:28.484Z,7.50
2018-03-23T19:35:56.867Z,6.70
2018-03-23T19:38:25.231Z,6.83
2018-03-23T19:40:53.616Z,6.20
2018-03-23T19:43:22.726Z,6.70
2018-03-23T19:45:51.068Z,6.73
2018-03-23T19:48:19.808Z,6.77
2018-03-23T19:50:48.201Z,6.97
2018-03-23T19:53:16.549Z,6.83
2018-03-23T19:55:44.951Z,6.00
2018-03-23T19:58:13.304Z,6.27
2018-03-23T20:00:41.638Z,6.30
2018-03-23T20:03:09.981Z,6.60
2018-03-23T20:05:38.319Z,6.80
2018-03-23T20:08:07.426Z,5.90
2018-03-23T20:10:36.687Z,6.10
2018-03-23T20:13:05.001Z,7.77
2018-03-23T20:15:34.116Z,6.63
2018-03-23T20:18:07.873Z,5.93
2018-03-23T20:20:41.629Z,6.60
2018-03-23T20:23:09.997Z,6.57
2018-03-23T20:25:38.505Z,6.10
2018-03-23T20:28:12.801Z,5.30
2018-03-23T20:30:41.131Z,6.60
2018-03-23T20:33:09.503Z,5.50
2018-03-23T20:35:37.882Z,6.00
2018-03-23T20:38:06.235Z,6.20
2018-03-23T20:40:35.539Z,6.23
2018-03-23T20:43:03.943Z,7.13
2018-03-23T20:45:32.319Z,6.40
2018-03-23T20:48:00.700Z,6.40
2018-03-23T20:50:29.152Z,7.47
2018-03-23T20:52:57.491Z,6.40
2018-03-23T20:55:25.835Z,7.20
2018-03-23T20:57:54.237Z,6.50
2018-03-23T21:00:22.591Z,7.40
2018-03-23T21:02:50.947Z,7.27
2018-03-23T21:05:19.290Z,8.13
2018-03-23T21:07:47.616Z,7.70
2018-03-23T21:10:15.958Z,6.50
2018-03-23T21:12:45.149Z,6.73
2018-03-23T21:15:13.466Z,7.07
2018-03-23T21:17:41.781Z,7.30
2018-03-23T21:20:10.160Z,7.17
2018-03-23T21:22:38.479Z,7.67
2018-03-23T21:25:06.825Z,7.53
2018-03-23T21:27:35.995Z,6.90
2018-03-23T21:30:04.348Z,7.13
2018-03-23T21:32:32.677Z,8.30
2018-03-23T21:35:01.694Z,7.60
2018-03-23T21:37:30.044Z,6.63
2018-03-23T21:39:58.440Z,7.93
2018-03-23T21:42:26.807Z,7.17
2018-03-23T21:44:55.176Z,7.27
2018-03-23T21:47:23.508Z,6.33
2018-03-23T21:49:51.939Z,8.50
2018-03-23T21:52:20.249Z,7.87
2018-03-23T21:54:49.325Z,7.70
2018-03-23T21:57:17.999Z,7.13
2018-03-23T21:59:46.336Z,6.17
2018-03-23T22:02:14.730Z,6.60
2018-03-23T22:04:43.141Z,7.47
2018-03-23T22:07:11.453Z,7.40
2018-03-23T22:09:40.512Z,7.03
2018-03-23T22:12:08.870Z,7.75
2018-03-23T22:14:37.262Z,7.03
2018-03-23T22:17:05.649Z,6.93
2018-03-23T22:19:34.210Z,6.13
2018-03-23T22:22:02.538Z,6.93
2018-03-23T22:24:31.676Z,7.07
2018-03-23T22:27:00.015Z,6.80
2018-03-23T22:29:28.355Z,7.17
2018-03-23T22:31:56.763Z,6.40
2018-03-23T22:34:25.090Z,6.23
2018-03-23T22:36:53.394Z,6.80
2018-03-23T22:39:21.747Z,7.12
2018-03-23T22:41:50.147Z,6.40
2018-03-23T22:44:18.576Z,6.65
2018-03-23T22:46:46.931Z,6.85
2018-03-23T22:49:16.078Z,7.15
2018-03-23T22:51:44.418Z,7.57
2018-03-23T22:54:12.754Z,7.67
2018-03-23T22:56:41.100Z,7.30
2018-03-23T22:59:09.477Z,7.25
2018-03-23T23:01:37.775Z,6.93
2018-03-23T23:04:06.213Z,7.65
2018-03-23T23:06:34.526Z,8.00
2018-03-23T23:09:02.834Z,8.13
2018-03-23T23:11:31.501Z,7.37
2018-03-23T23:13:59.932Z,7.83
2018-03-23T23:16:28.306Z,8.10
2018-03-23T23:18:57.435Z,8.40
2018-03-23T23:21:25.807Z,8.67
2018-03-23T23:23:54.113Z,8.03
2018-03-23T23:26:22.804Z,7.70
2018-03-23T23:28:51.178Z,9.00
2018-03-23T23:31:19.552Z,8.48
2018-03-23T23:33:48.003Z,8.63
2018-03-23T23:36:16.380Z,8.87
2018-03-23T23:38:45.484Z,8.80
2018-03-23T23:41:13.843Z,9.50
2018-03-23T23:43:42.956Z,8.55
2018-03-23T23:46:11.296Z,8.68
2018-03-23T23:48:39.726Z,8.30
2018-03-23T23:51:08.130Z,8.77
2018-03-23T23:53:36.489Z,9.68
2018-03-23T23:56:04.852Z,8.45
2018-03-23T23:58:34.385Z,9.50
